sensor_id;sensor_type;location;lat;lon;timestamp;P1;durP1;ratioP1;P2;durP2;ratioP2
53108;SDS011;39007;53.090;6.074;2023-08-17T00:01:47;10.63;;;2.92;;
53108;SDS011;39007;53.090;6.074;2023-08-17T00:04:13;7.32;;;2.88;;
53108;SDS011;39007;53.090;6.074;2023-08-17T00:06:39;11.70;;;2.90;;
53108;SDS011;39007;53.090;6.074;2023-08-17T00:09:05;5.85;;;2.20;;
53108;SDS011;39007;53.090;6.074;2023-08-17T00:11:32;9.55;;;2.58;;
53108;SDS011;39007;53.090;6.074;2023-08-17T00:13:59;6.95;;;2.47;;
53108;SDS011;39007;53.090;6.074;2023-08-17T00:16:25;8.30;;;2.60;;
53108;SDS011;39007;53.090;6.074;2023-08-17T00:18:51;8.02;;;2.78;;
53108;SDS011;39007;53.090;6.074;2023-08-17T00:21:17;8.05;;;2.60;;
53108;SDS011;39007;53.090;6.074;2023-08-17T00:23:43;9.15;;;2.65;;
53108;SDS011;39007;53.090;6.074;2023-08-17T00:26:09;9.95;;;2.67;;
53108;SDS011;39007;53.090;6.074;2023-08-17T00:28:36;7.90;;;2.85;;
53108;SDS011;39007;53.090;6.074;2023-08-17T00:31:02;7.00;;;2.70;;
53108;SDS011;39007;53.090;6.074;2023-08-17T00:33:28;7.78;;;2.63;;
53108;SDS011;39007;53.090;6.074;2023-08-17T00:35:54;7.85;;;2.80;;
53108;SDS011;39007;53.090;6.074;2023-08-17T00:38:20;7.85;;;2.80;;
53108;SDS011;39007;53.090;6.074;2023-08-17T00:40:46;7.05;;;2.83;;
53108;SDS011;39007;53.090;6.074;2023-08-17T00:43:12;8.32;;;2.70;;
53108;SDS011;39007;53.090;6.074;2023-08-17T00:45:38;7.47;;;2.80;;
53108;SDS011;39007;53.090;6.074;2023-08-17T00:48:05;8.15;;;2.90;;
53108;SDS011;39007;53.090;6.074;2023-08-17T00:50:32;9.65;;;3.08;;
53108;SDS011;39007;53.090;6.074;2023-08-17T00:53:00;11.00;;;2.95;;
53108;SDS011;39007;53.090;6.074;2023-08-17T00:55:26;9.07;;;3.08;;
53108;SDS011;39007;53.090;6.074;2023-08-17T00:57:53;9.82;;;2.97;;
53108;SDS011;39007;53.090;6.074;2023-08-17T01:00:19;8.15;;;2.80;;
53108;SDS011;39007;53.090;6.074;2023-08-17T01:02:46;7.15;;;2.80;;
53108;SDS011;39007;53.090;6.074;2023-08-17T01:05:12;8.35;;;2.63;;
53108;SDS011;39007;53.090;6.074;2023-08-17T01:07:38;6.45;;;2.60;;
53108;SDS011;39007;53.090;6.074;2023-08-17T01:10:04;11.57;;;2.92;;
53108;SDS011;39007;53.090;6.074;2023-08-17T01:12:35;9.35;;;2.85;;
53108;SDS011;39007;53.090;6.074;2023-08-17T01:15:09;12.43;;;3.05;;
53108;SDS011;39007;53.090;6.074;2023-08-17T01:17:40;8.50;;;3.10;;
53108;SDS011;39007;53.090;6.074;2023-08-17T01:20:08;9.77;;;2.80;;
53108;SDS011;39007;53.090;6.074;2023-08-17T01:22:37;9.20;;;3.03;;
53108;SDS011;39007;53.090;6.074;2023-08-17T01:25:06;8.73;;;3.50;;
53108;SDS011;39007;53.090;6.074;2023-08-17T01:27:40;10.02;;;3.50;;
53108;SDS011;39007;53.090;6.074;2023-08-17T01:30:07;11.82;;;3.17;;
53108;SDS011;39007;53.090;6.074;2023-08-17T01:32:37;8.38;;;2.65;;
53108;SDS011;39007;53.090;6.074;2023-08-17T01:35:09;6.47;;;2.53;;
53108;SDS011;39007;53.090;6.074;2023-08-17T01:37:37;8.88;;;2.97;;
53108;SDS011;39007;53.090;6.074;2023-08-17T01:40:04;12.55;;;2.90;;
53108;SDS011;39007;53.090;6.074;2023-08-17T01:42:31;7.82;;;2.67;;
53108;SDS011;39007;53.090;6.074;2023-08-17T01:44:57;7.88;;;2.80;;
53108;SDS011;39007;53.090;6.074;2023-08-17T01:47:23;7.57;;;3.10;;
53108;SDS011;39007;53.090;6.074;2023-08-17T01:49:49;8.73;;;2.65;;
53108;SDS011;39007;53.090;6.074;2023-08-17T01:52:15;9.80;;;2.90;;
53108;SDS011;39007;53.090;6.074;2023-08-17T01:54:42;10.18;;;2.80;;
53108;SDS011;39007;53.090;6.074;2023-08-17T01:57:08;6.32;;;2.40;;
53108;SDS011;39007;53.090;6.074;2023-08-17T01:59:34;11.02;;;3.13;;
53108;SDS011;39007;53.090;6.074;2023-08-17T02:02:00;7.63;;;2.80;;
53108;SDS011;39007;53.090;6.074;2023-08-17T02:04:26;8.30;;;3.15;;
53108;SDS011;39007;53.090;6.074;2023-08-17T02:06:52;9.38;;;2.80;;
53108;SDS011;39007;53.090;6.074;2023-08-17T02:09:18;6.72;;;2.70;;
53108;SDS011;39007;53.090;6.074;2023-08-17T02:11:45;7.93;;;2.95;;
53108;SDS011;39007;53.090;6.074;2023-08-17T02:14:11;7.75;;;3.00;;
53108;SDS011;39007;53.090;6.074;2023-08-17T02:16:37;8.57;;;3.15;;
53108;SDS011;39007;53.090;6.074;2023-08-17T02:19:03;8.18;;;2.85;;
53108;SDS011;39007;53.090;6.074;2023-08-17T02:21:29;9.48;;;3.20;;
53108;SDS011;39007;53.090;6.074;2023-08-17T02:23:55;8.55;;;2.92;;
53108;SDS011;39007;53.090;6.074;2023-08-17T02:26:22;7.47;;;3.10;;
53108;SDS011;39007;53.090;6.074;2023-08-17T02:28:48;8.98;;;2.95;;
53108;SDS011;39007;53.090;6.074;2023-08-17T02:31:14;11.63;;;3.40;;
53108;SDS011;39007;53.090;6.074;2023-08-17T02:33:40;9.88;;;3.20;;
53108;SDS011;39007;53.090;6.074;2023-08-17T02:36:06;11.02;;;3.28;;
53108;SDS011;39007;53.090;6.074;2023-08-17T02:38:32;9.57;;;3.38;;
53108;SDS011;39007;53.090;6.074;2023-08-17T02:40:59;8.55;;;3.05;;
53108;SDS011;39007;53.090;6.074;2023-08-17T02:43:25;9.00;;;3.15;;
53108;SDS011;39007;53.090;6.074;2023-08-17T02:45:51;7.30;;;3.22;;
53108;SDS011;39007;53.090;6.074;2023-08-17T02:48:18;7.45;;;3.13;;
53108;SDS011;39007;53.090;6.074;2023-08-17T02:50:44;10.00;;;3.50;;
53108;SDS011;39007;53.090;6.074;2023-08-17T02:53:10;8.25;;;3.47;;
53108;SDS011;39007;53.090;6.074;2023-08-17T02:55:36;11.55;;;3.60;;
53108;SDS011;39007;53.090;6.074;2023-08-17T02:58:02;10.57;;;3.38;;
53108;SDS011;39007;53.090;6.074;2023-08-17T03:00:28;8.98;;;3.15;;
53108;SDS011;39007;53.090;6.074;2023-08-17T03:02:55;11.27;;;3.70;;
53108;SDS011;39007;53.090;6.074;2023-08-17T03:05:21;9.07;;;3.60;;
53108;SDS011;39007;53.090;6.074;2023-08-17T03:07:47;7.50;;;3.25;;
53108;SDS011;39007;53.090;6.074;2023-08-17T03:10:13;11.50;;;3.40;;
53108;SDS011;39007;53.090;6.074;2023-08-17T03:12:39;8.77;;;3.38;;
53108;SDS011;39007;53.090;6.074;2023-08-17T03:15:06;9.10;;;3.78;;
53108;SDS011;39007;53.090;6.074;2023-08-17T03:17:32;8.32;;;3.53;;
53108;SDS011;39007;53.090;6.074;2023-08-17T03:19:58;10.43;;;3.67;;
53108;SDS011;39007;53.090;6.074;2023-08-17T03:22:25;10.18;;;3.85;;
53108;SDS011;39007;53.090;6.074;2023-08-17T03:24:51;7.97;;;3.05;;
53108;SDS011;39007;53.090;6.074;2023-08-17T03:27:17;7.13;;;3.28;;
53108;SDS011;39007;53.090;6.074;2023-08-17T03:29:43;9.20;;;3.40;;
53108;SDS011;39007;53.090;6.074;2023-08-17T03:32:09;11.35;;;3.97;;
53108;SDS011;39007;53.090;6.074;2023-08-17T03:34:35;9.60;;;3.83;;
53108;SDS011;39007;53.090;6.074;2023-08-17T03:37:01;8.32;;;3.45;;
53108;SDS011;39007;53.090;6.074;2023-08-17T03:39:27;10.00;;;3.80;;
53108;SDS011;39007;53.090;6.074;2023-08-17T03:41:53;9.48;;;3.60;;
53108;SDS011;39007;53.090;6.074;2023-08-17T03:44:19;7.60;;;3.20;;
53108;SDS011;39007;53.090;6.074;2023-08-17T03:46:46;7.32;;;3.60;;
53108;SDS011;39007;53.090;6.074;2023-08-17T03:49:12;9.25;;;3.20;;
53108;SDS011;39007;53.090;6.074;2023-08-17T03:51:38;9.45;;;3.50;;
53108;SDS011;39007;53.090;6.074;2023-08-17T03:54:04;9.60;;;3.53;;
53108;SDS011;39007;53.090;6.074;2023-08-17T03:56:30;13.45;;;3.83;;
53108;SDS011;39007;53.090;6.074;2023-08-17T03:58:56;9.13;;;3.35;;
53108;SDS011;39007;53.090;6.074;2023-08-17T04:01:22;9.48;;;3.63;;
53108;SDS011;39007;53.090;6.074;2023-08-17T04:03:48;10.23;;;3.90;;
53108;SDS011;39007;53.090;6.074;2023-08-17T04:06:14;8.95;;;4.00;;
53108;SDS011;39007;53.090;6.074;2023-08-17T04:08:40;10.70;;;4.10;;
53108;SDS011;39007;53.090;6.074;2023-08-17T04:11:06;8.23;;;4.10;;
53108;SDS011;39007;53.090;6.074;2023-08-17T04:13:32;10.85;;;4.65;;
53108;SDS011;39007;53.090;6.074;2023-08-17T04:15:58;9.50;;;3.90;;
53108;SDS011;39007;53.090;6.074;2023-08-17T04:18:25;9.40;;;3.92;;
53108;SDS011;39007;53.090;6.074;2023-08-17T04:20:51;7.47;;;3.50;;
53108;SDS011;39007;53.090;6.074;2023-08-17T04:23:17;8.45;;;3.40;;
53108;SDS011;39007;53.090;6.074;2023-08-17T04:25:43;8.20;;;3.67;;
53108;SDS011;39007;53.090;6.074;2023-08-17T04:28:09;11.45;;;3.55;;
53108;SDS011;39007;53.090;6.074;2023-08-17T04:30:35;10.25;;;3.50;;
53108;SDS011;39007;53.090;6.074;2023-08-17T04:33:03;8.70;;;3.85;;
53108;SDS011;39007;53.090;6.074;2023-08-17T04:35:29;8.23;;;3.22;;
53108;SDS011;39007;53.090;6.074;2023-08-17T04:37:55;8.70;;;3.40;;
53108;SDS011;39007;53.090;6.074;2023-08-17T04:40:21;8.85;;;3.60;;
53108;SDS011;39007;53.090;6.074;2023-08-17T04:42:47;6.57;;;3.40;;
53108;SDS011;39007;53.090;6.074;2023-08-17T04:45:13;9.50;;;3.92;;
53108;SDS011;39007;53.090;6.074;2023-08-17T04:47:39;8.65;;;3.17;;
53108;SDS011;39007;53.090;6.074;2023-08-17T04:50:05;9.10;;;3.30;;
53108;SDS011;39007;53.090;6.074;2023-08-17T04:52:32;10.32;;;3.53;;
53108;SDS011;39007;53.090;6.074;2023-08-17T04:54:58;9.50;;;3.65;;
53108;SDS011;39007;53.090;6.074;2023-08-17T04:57:24;10.38;;;3.45;;
53108;SDS011;39007;53.090;6.074;2023-08-17T04:59:51;7.32;;;3.40;;
53108;SDS011;39007;53.090;6.074;2023-08-17T05:02:17;9.13;;;3.40;;
53108;SDS011;39007;53.090;6.074;2023-08-17T05:04:43;10.80;;;3.55;;
53108;SDS011;39007;53.090;6.074;2023-08-17T05:07:09;9.18;;;3.63;;
53108;SDS011;39007;53.090;6.074;2023-08-17T05:09:35;8.85;;;3.70;;
53108;SDS011;39007;53.090;6.074;2023-08-17T05:12:01;8.57;;;3.38;;
53108;SDS011;39007;53.090;6.074;2023-08-17T05:14:27;11.93;;;3.90;;
53108;SDS011;39007;53.090;6.074;2023-08-17T05:16:53;10.35;;;3.33;;
53108;SDS011;39007;53.090;6.074;2023-08-17T05:19:19;6.75;;;2.83;;
53108;SDS011;39007;53.090;6.074;2023-08-17T05:21:45;8.00;;;3.20;;
53108;SDS011;39007;53.090;6.074;2023-08-17T05:24:13;8.13;;;3.13;;
53108;SDS011;39007;53.090;6.074;2023-08-17T05:26:40;6.38;;;2.90;;
53108;SDS011;39007;53.090;6.074;2023-08-17T05:29:06;7.75;;;3.13;;
53108;SDS011;39007;53.090;6.074;2023-08-17T05:31:32;5.95;;;2.90;;
53108;SDS011;39007;53.090;6.074;2023-08-17T05:33:58;9.73;;;3.28;;
53108;SDS011;39007;53.090;6.074;2023-08-17T05:36:24;6.53;;;2.75;;
53108;SDS011;39007;53.090;6.074;2023-08-17T05:38:50;8.60;;;3.25;;
53108;SDS011;39007;53.090;6.074;2023-08-17T05:41:16;7.40;;;3.03;;
53108;SDS011;39007;53.090;6.074;2023-08-17T05:43:42;7.18;;;2.97;;
53108;SDS011;39007;53.090;6.074;2023-08-17T05:46:09;7.50;;;2.55;;
53108;SDS011;39007;53.090;6.074;2023-08-17T05:48:35;7.90;;;3.13;;
53108;SDS011;39007;53.090;6.074;2023-08-17T05:51:01;8.23;;;2.88;;
53108;SDS011;39007;53.090;6.074;2023-08-17T05:53:27;6.72;;;2.35;;
53108;SDS011;39007;53.090;6.074;2023-08-17T05:55:53;11.73;;;3.05;;
53108;SDS011;39007;53.090;6.074;2023-08-17T05:58:19;7.10;;;2.40;;
53108;SDS011;39007;53.090;6.074;2023-08-17T06:00:45;6.45;;;2.47;;
53108;SDS011;39007;53.090;6.074;2023-08-17T06:03:11;9.30;;;2.60;;
53108;SDS011;39007;53.090;6.074;2023-08-17T06:05:37;7.72;;;2.50;;
53108;SDS011;39007;53.090;6.074;2023-08-17T06:08:03;8.63;;;2.38;;
53108;SDS011;39007;53.090;6.074;2023-08-17T06:10:29;7.68;;;2.08;;
53108;SDS011;39007;53.090;6.074;2023-08-17T06:12:55;6.32;;;2.10;;
53108;SDS011;39007;53.090;6.074;2023-08-17T06:15:22;7.55;;;2.10;;
53108;SDS011;39007;53.090;6.074;2023-08-17T06:17:49;5.20;;;2.10;;
53108;SDS011;39007;53.090;6.074;2023-08-17T06:20:15;6.57;;;1.90;;
53108;SDS011;39007;53.090;6.074;2023-08-17T06:22:41;8.88;;;2.00;;
53108;SDS011;39007;53.090;6.074;2023-08-17T06:25:08;7.82;;;2.17;;
53108;SDS011;39007;53.090;6.074;2023-08-17T06:27:34;7.47;;;2.28;;
53108;SDS011;39007;53.090;6.074;2023-08-17T06:30:01;4.63;;;1.70;;
53108;SDS011;39007;53.090;6.074;2023-08-17T06:32:28;6.88;;;1.98;;
53108;SDS011;39007;53.090;6.074;2023-08-17T06:34:54;5.20;;;1.75;;
53108;SDS011;39007;53.090;6.074;2023-08-17T06:37:20;7.15;;;2.13;;
53108;SDS011;39007;53.090;6.074;2023-08-17T06:39:46;6.38;;;2.00;;
53108;SDS011;39007;53.090;6.074;2023-08-17T06:42:12;8.52;;;2.00;;
53108;SDS011;39007;53.090;6.074;2023-08-17T06:44:38;8.20;;;2.20;;
53108;SDS011;39007;53.090;6.074;2023-08-17T06:47:04;8.10;;;2.05;;
53108;SDS011;39007;53.090;6.074;2023-08-17T06:49:31;8.88;;;2.33;;
53108;SDS011;39007;53.090;6.074;2023-08-17T06:51:57;8.05;;;2.33;;
53108;SDS011;39007;53.090;6.074;2023-08-17T06:54:23;6.70;;;2.03;;
53108;SDS011;39007;53.090;6.074;2023-08-17T06:56:49;6.50;;;2.15;;
53108;SDS011;39007;53.090;6.074;2023-08-17T06:59:15;9.13;;;2.20;;
53108;SDS011;39007;53.090;6.074;2023-08-17T07:01:41;8.00;;;2.03;;
53108;SDS011;39007;53.090;6.074;2023-08-17T07:04:07;7.82;;;2.40;;
53108;SDS011;39007;53.090;6.074;2023-08-17T07:06:34;9.98;;;2.38;;
53108;SDS011;39007;53.090;6.074;2023-08-17T07:09:00;7.90;;;2.05;;
53108;SDS011;39007;53.090;6.074;2023-08-17T07:11:28;6.88;;;1.90;;
53108;SDS011;39007;53.090;6.074;2023-08-17T07:13:54;7.60;;;2.20;;
53108;SDS011;39007;53.090;6.074;2023-08-17T07:16:20;7.38;;;2.33;;
53108;SDS011;39007;53.090;6.074;2023-08-17T07:18:46;9.38;;;2.17;;
53108;SDS011;39007;53.090;6.074;2023-08-17T07:21:12;6.90;;;2.25;;
53108;SDS011;39007;53.090;6.074;2023-08-17T07:23:38;4.80;;;1.77;;
53108;SDS011;39007;53.090;6.074;2023-08-17T07:26:05;7.50;;;2.08;;
53108;SDS011;39007;53.090;6.074;2023-08-17T07:28:31;7.00;;;2.22;;
53108;SDS011;39007;53.090;6.074;2023-08-17T07:30:57;8.63;;;2.10;;
53108;SDS011;39007;53.090;6.074;2023-08-17T07:33:23;9.75;;;2.33;;
53108;SDS011;39007;53.090;6.074;2023-08-17T07:35:49;12.35;;;2.30;;
53108;SDS011;39007;53.090;6.074;2023-08-17T07:38:15;7.55;;;1.90;;
53108;SDS011;39007;53.090;6.074;2023-08-17T07:40:41;8.82;;;1.90;;
53108;SDS011;39007;53.090;6.074;2023-08-17T07:43:08;5.70;;;1.85;;
53108;SDS011;39007;53.090;6.074;2023-08-17T07:45:34;6.47;;;1.83;;
53108;SDS011;39007;53.090;6.074;2023-08-17T07:48:00;13.30;;;2.13;;
53108;SDS011;39007;53.090;6.074;2023-08-17T07:50:26;8.75;;;1.90;;
53108;SDS011;39007;53.090;6.074;2023-08-17T07:52:52;10.85;;;2.08;;
53108;SDS011;39007;53.090;6.074;2023-08-17T07:55:18;9.05;;;2.20;;
53108;SDS011;39007;53.090;6.074;2023-08-17T07:57:44;8.23;;;2.00;;
53108;SDS011;39007;53.090;6.074;2023-08-17T08:00:11;8.48;;;1.85;;
53108;SDS011;39007;53.090;6.074;2023-08-17T08:02:37;8.60;;;1.75;;
53108;SDS011;39007;53.090;6.074;2023-08-17T08:05:03;9.85;;;2.00;;
53108;SDS011;39007;53.090;6.074;2023-08-17T08:07:29;5.50;;;1.77;;
53108;SDS011;39007;53.090;6.074;2023-08-17T08:09:55;7.20;;;1.85;;
53108;SDS011;39007;53.090;6.074;2023-08-17T08:12:22;6.00;;;2.00;;
53108;SDS011;39007;53.090;6.074;2023-08-17T08:14:48;7.05;;;1.70;;
53108;SDS011;39007;53.090;6.074;2023-08-17T08:17:14;7.55;;;1.70;;
53108;SDS011;39007;53.090;6.074;2023-08-17T08:19:40;5.63;;;1.50;;
53108;SDS011;39007;53.090;6.074;2023-08-17T08:22:06;6.90;;;1.60;;
53108;SDS011;39007;53.090;6.074;2023-08-17T08:24:32;5.97;;;1.80;;
53108;SDS011;39007;53.090;6.074;2023-08-17T08:27:00;6.43;;;1.48;;
53108;SDS011;39007;53.090;6.074;2023-08-17T08:29:29;5.88;;;1.50;;
53108;SDS011;39007;53.090;6.074;2023-08-17T08:31:55;7.65;;;1.63;;
53108;SDS011;39007;53.090;6.074;2023-08-17T08:34:22;5.75;;;1.70;;
53108;SDS011;39007;53.090;6.074;2023-08-17T08:36:48;5.18;;;1.50;;
53108;SDS011;39007;53.090;6.074;2023-08-17T08:39:14;4.82;;;1.45;;
53108;SDS011;39007;53.090;6.074;2023-08-17T08:41:40;7.75;;;2.03;;
53108;SDS011;39007;53.090;6.074;2023-08-17T08:44:06;4.18;;;1.55;;
53108;SDS011;39007;53.090;6.074;2023-08-17T08:46:32;5.07;;;1.50;;
53108;SDS011;39007;53.090;6.074;2023-08-17T08:48:59;4.40;;;1.50;;
53108;SDS011;39007;53.090;6.074;2023-08-17T08:51:27;6.28;;;2.50;;
53108;SDS011;39007;53.090;6.074;2023-08-17T08:54:01;6.70;;;1.60;;
53108;SDS011;39007;53.090;6.074;2023-08-17T08:56:33;6.50;;;2.00;;
53108;SDS011;39007;53.090;6.074;2023-08-17T08:59:01;6.40;;;1.85;;
53108;SDS011;39007;53.090;6.074;2023-08-17T09:01:28;5.03;;;1.52;;
53108;SDS011;39007;53.090;6.074;2023-08-17T09:03:58;5.35;;;1.90;;
53108;SDS011;39007;53.090;6.074;2023-08-17T09:06:25;9.10;;;1.77;;
53108;SDS011;39007;53.090;6.074;2023-08-17T09:08:52;6.00;;;1.48;;
53108;SDS011;39007;53.090;6.074;2023-08-17T09:11:18;5.03;;;1.50;;
53108;SDS011;39007;53.090;6.074;2023-08-17T09:13:44;5.47;;;1.50;;
53108;SDS011;39007;53.090;6.074;2023-08-17T09:16:10;6.57;;;1.85;;
53108;SDS011;39007;53.090;6.074;2023-08-17T09:18:36;5.15;;;1.73;;
53108;SDS011;39007;53.090;6.074;2023-08-17T09:21:03;9.57;;;1.75;;
53108;SDS011;39007;53.090;6.074;2023-08-17T09:23:29;7.18;;;1.63;;
53108;SDS011;39007;53.090;6.074;2023-08-17T09:25:55;5.68;;;1.55;;
53108;SDS011;39007;53.090;6.074;2023-08-17T09:28:25;6.93;;;1.65;;
53108;SDS011;39007;53.090;6.074;2023-08-17T09:30:54;6.65;;;1.60;;
53108;SDS011;39007;53.090;6.074;2023-08-17T09:33:22;6.28;;;1.60;;
53108;SDS011;39007;53.090;6.074;2023-08-17T09:35:51;6.68;;;1.75;;
53108;SDS011;39007;53.090;6.074;2023-08-17T09:38:18;5.40;;;1.40;;
53108;SDS011;39007;53.090;6.074;2023-08-17T09:40:44;8.40;;;2.25;;
53108;SDS011;39007;53.090;6.074;2023-08-17T09:43:10;6.38;;;1.58;;
53108;SDS011;39007;53.090;6.074;2023-08-17T09:45:39;8.23;;;1.67;;
53108;SDS011;39007;53.090;6.074;2023-08-17T09:48:06;5.43;;;1.83;;
53108;SDS011;39007;53.090;6.074;2023-08-17T09:50:32;6.72;;;1.58;;
53108;SDS011;39007;53.090;6.074;2023-08-17T09:52:58;27.20;;;2.15;;
53108;SDS011;39007;53.090;6.074;2023-08-17T09:55:24;6.57;;;2.00;;
53108;SDS011;39007;53.090;6.074;2023-08-17T09:57:50;7.40;;;1.60;;
53108;SDS011;39007;53.090;6.074;2023-08-17T10:00:20;7.22;;;1.73;;
53108;SDS011;39007;53.090;6.074;2023-08-17T10:02:50;5.78;;;1.73;;
53108;SDS011;39007;53.090;6.074;2023-08-17T10:05:17;7.57;;;1.65;;
53108;SDS011;39007;53.090;6.074;2023-08-17T10:07:47;5.93;;;1.55;;
53108;SDS011;39007;53.090;6.074;2023-08-17T10:10:14;5.32;;;1.60;;
53108;SDS011;39007;53.090;6.074;2023-08-17T10:12:53;6.03;;;1.77;;
53108;SDS011;39007;53.090;6.074;2023-08-17T10:15:23;7.30;;;1.88;;
53108;SDS011;39007;53.090;6.074;2023-08-17T10:18:02;6.00;;;1.80;;
53108;SDS011;39007;53.090;6.074;2023-08-17T10:20:31;5.95;;;1.65;;
53108;SDS011;39007;53.090;6.074;2023-08-17T10:23:08;8.70;;;1.58;;
53108;SDS011;39007;53.090;6.074;2023-08-17T10:25:36;7.80;;;1.85;;
53108;SDS011;39007;53.090;6.074;2023-08-17T10:28:03;6.63;;;1.88;;
53108;SDS011;39007;53.090;6.074;2023-08-17T10:30:29;6.80;;;1.85;;
53108;SDS011;39007;53.090;6.074;2023-08-17T10:32:55;6.68;;;1.70;;
53108;SDS011;39007;53.090;6.074;2023-08-17T10:35:21;7.07;;;2.33;;
53108;SDS011;39007;53.090;6.074;2023-08-17T10:37:48;8.98;;;1.67;;
53108;SDS011;39007;53.090;6.074;2023-08-17T10:40:14;5.38;;;1.60;;
53108;SDS011;39007;53.090;6.074;2023-08-17T10:42:40;5.38;;;1.70;;
53108;SDS011;39007;53.090;6.074;2023-08-17T10:47:48;7.70;;;2.17;;
53108;SDS011;39007;53.090;6.074;2023-08-17T10:50:22;5.20;;;1.70;;
53108;SDS011;39007;53.090;6.074;2023-08-17T10:52:48;6.90;;;1.70;;
53108;SDS011;39007;53.090;6.074;2023-08-17T10:55:15;4.95;;;1.70;;
53108;SDS011;39007;53.090;6.074;2023-08-17T10:57:42;6.40;;;2.08;;
53108;SDS011;39007;53.090;6.074;2023-08-17T11:00:13;11.32;;;2.10;;
53108;SDS011;39007;53.090;6.074;2023-08-17T11:02:39;8.80;;;1.60;;
53108;SDS011;39007;53.090;6.074;2023-08-17T11:05:06;6.88;;;1.77;;
53108;SDS011;39007;53.090;6.074;2023-08-17T11:07:42;5.60;;;1.60;;
53108;SDS011;39007;53.090;6.074;2023-08-17T11:12:46;7.63;;;2.20;;
53108;SDS011;39007;53.090;6.074;2023-08-17T11:15:13;7.03;;;2.00;;
53108;SDS011;39007;53.090;6.074;2023-08-17T11:17:39;6.95;;;1.80;;
53108;SDS011;39007;53.090;6.074;2023-08-17T11:20:05;8.32;;;1.80;;
53108;SDS011;39007;53.090;6.074;2023-08-17T11:22:33;5.57;;;1.52;;
53108;SDS011;39007;53.090;6.074;2023-08-17T11:25:00;5.25;;;2.00;;
53108;SDS011;39007;53.090;6.074;2023-08-17T11:27:26;8.43;;;1.70;;
53108;SDS011;39007;53.090;6.074;2023-08-17T11:29:56;5.50;;;1.88;;
53108;SDS011;39007;53.090;6.074;2023-08-17T11:32:22;7.35;;;2.10;;
53108;SDS011;39007;53.090;6.074;2023-08-17T11:34:48;7.00;;;1.70;;
53108;SDS011;39007;53.090;6.074;2023-08-17T11:37:15;4.28;;;1.73;;
53108;SDS011;39007;53.090;6.074;2023-08-17T11:39:41;8.45;;;2.03;;
53108;SDS011;39007;53.090;6.074;2023-08-17T11:42:08;8.15;;;2.15;;
53108;SDS011;39007;53.090;6.074;2023-08-17T11:44:34;7.03;;;2.10;;
53108;SDS011;39007;53.090;6.074;2023-08-17T11:47:01;8.52;;;2.08;;
53108;SDS011;39007;53.090;6.074;2023-08-17T11:49:29;5.45;;;1.70;;
53108;SDS011;39007;53.090;6.074;2023-08-17T11:51:56;7.53;;;1.75;;
53108;SDS011;39007;53.090;6.074;2023-08-17T11:54:22;10.18;;;1.80;;
53108;SDS011;39007;53.090;6.074;2023-08-17T11:56:48;10.32;;;2.15;;
53108;SDS011;39007;53.090;6.074;2023-08-17T11:59:14;6.20;;;1.80;;
53108;SDS011;39007;53.090;6.074;2023-08-17T12:01:43;8.35;;;2.10;;
53108;SDS011;39007;53.090;6.074;2023-08-17T12:04:10;7.25;;;1.98;;
53108;SDS011;39007;53.090;6.074;2023-08-17T12:06:41;5.97;;;1.73;;
53108;SDS011;39007;53.090;6.074;2023-08-17T12:09:08;14.13;;;2.13;;
53108;SDS011;39007;53.090;6.074;2023-08-17T12:11:34;9.57;;;2.15;;
53108;SDS011;39007;53.090;6.074;2023-08-17T12:14:07;5.10;;;1.85;;
53108;SDS011;39007;53.090;6.074;2023-08-17T12:16:34;7.43;;;2.42;;
53108;SDS011;39007;53.090;6.074;2023-08-17T12:19:00;7.97;;;2.25;;
53108;SDS011;39007;53.090;6.074;2023-08-17T12:21:29;8.10;;;1.85;;
53108;SDS011;39007;53.090;6.074;2023-08-17T12:23:55;9.50;;;2.08;;
53108;SDS011;39007;53.090;6.074;2023-08-17T12:26:22;9.93;;;2.28;;
53108;SDS011;39007;53.090;6.074;2023-08-17T12:28:51;7.40;;;2.10;;
53108;SDS011;39007;53.090;6.074;2023-08-17T12:31:21;7.63;;;2.30;;
53108;SDS011;39007;53.090;6.074;2023-08-17T12:33:47;7.72;;;2.30;;
53108;SDS011;39007;53.090;6.074;2023-08-17T12:36:14;6.82;;;1.85;;
53108;SDS011;39007;53.090;6.074;2023-08-17T12:38:40;7.75;;;1.95;;
53108;SDS011;39007;53.090;6.074;2023-08-17T12:41:10;7.65;;;2.40;;
53108;SDS011;39007;53.090;6.074;2023-08-17T12:43:37;5.70;;;2.03;;
53108;SDS011;39007;53.090;6.074;2023-08-17T12:46:03;9.45;;;1.75;;
53108;SDS011;39007;53.090;6.074;2023-08-17T12:48:29;5.93;;;2.00;;
53108;SDS011;39007;53.090;6.074;2023-08-17T12:50:55;11.35;;;2.22;;
53108;SDS011;39007;53.090;6.074;2023-08-17T12:53:22;8.93;;;2.10;;
53108;SDS011;39007;53.090;6.074;2023-08-17T12:55:48;9.02;;;2.47;;
53108;SDS011;39007;53.090;6.074;2023-08-17T12:58:14;10.60;;;2.35;;
53108;SDS011;39007;53.090;6.074;2023-08-17T13:00:40;6.85;;;2.40;;
53108;SDS011;39007;53.090;6.074;2023-08-17T13:03:06;8.27;;;2.53;;
53108;SDS011;39007;53.090;6.074;2023-08-17T13:05:32;8.05;;;2.15;;
53108;SDS011;39007;53.090;6.074;2023-08-17T13:07:59;11.32;;;2.40;;
53108;SDS011;39007;53.090;6.074;2023-08-17T13:10:25;9.13;;;2.55;;
53108;SDS011;39007;53.090;6.074;2023-08-17T13:12:51;9.95;;;2.90;;
53108;SDS011;39007;53.090;6.074;2023-08-17T13:15:21;8.50;;;2.42;;
53108;SDS011;39007;53.090;6.074;2023-08-17T13:17:48;8.93;;;2.30;;
53108;SDS011;39007;53.090;6.074;2023-08-17T13:20:14;13.07;;;2.65;;
53108;SDS011;39007;53.090;6.074;2023-08-17T13:22:40;8.60;;;2.70;;
53108;SDS011;39007;53.090;6.074;2023-08-17T13:25:06;8.00;;;2.47;;
53108;SDS011;39007;53.090;6.074;2023-08-17T13:27:32;10.60;;;2.53;;
53108;SDS011;39007;53.090;6.074;2023-08-17T13:29:58;13.25;;;2.78;;
53108;SDS011;39007;53.090;6.074;2023-08-17T13:32:26;6.78;;;2.63;;
53108;SDS011;39007;53.090;6.074;2023-08-17T13:34:52;5.95;;;2.40;;
53108;SDS011;39007;53.090;6.074;2023-08-17T13:37:19;6.63;;;2.65;;
53108;SDS011;39007;53.090;6.074;2023-08-17T13:39:45;10.13;;;2.75;;
53108;SDS011;39007;53.090;6.074;2023-08-17T13:42:12;7.05;;;2.40;;
53108;SDS011;39007;53.090;6.074;2023-08-17T13:44:38;9.10;;;2.40;;
53108;SDS011;39007;53.090;6.074;2023-08-17T13:47:04;10.85;;;2.20;;
53108;SDS011;39007;53.090;6.074;2023-08-17T13:49:30;7.20;;;2.50;;
53108;SDS011;39007;53.090;6.074;2023-08-17T13:51:56;8.93;;;2.30;;
53108;SDS011;39007;53.090;6.074;2023-08-17T13:54:23;12.38;;;2.08;;
53108;SDS011;39007;53.090;6.074;2023-08-17T13:56:49;7.68;;;2.30;;
53108;SDS011;39007;53.090;6.074;2023-08-17T13:59:15;8.32;;;2.50;;
53108;SDS011;39007;53.090;6.074;2023-08-17T14:01:41;6.30;;;2.13;;
53108;SDS011;39007;53.090;6.074;2023-08-17T14:04:08;8.18;;;2.35;;
53108;SDS011;39007;53.090;6.074;2023-08-17T14:06:37;9.80;;;2.35;;
53108;SDS011;39007;53.090;6.074;2023-08-17T14:09:03;8.02;;;2.42;;
53108;SDS011;39007;53.090;6.074;2023-08-17T14:11:30;7.90;;;2.28;;
53108;SDS011;39007;53.090;6.074;2023-08-17T14:13:56;8.73;;;2.63;;
53108;SDS011;39007;53.090;6.074;2023-08-17T14:16:22;6.68;;;2.03;;
53108;SDS011;39007;53.090;6.074;2023-08-17T14:18:48;6.25;;;2.47;;
53108;SDS011;39007;53.090;6.074;2023-08-17T14:21:14;6.97;;;2.10;;
53108;SDS011;39007;53.090;6.074;2023-08-17T14:23:40;8.60;;;2.40;;
53108;SDS011;39007;53.090;6.074;2023-08-17T14:26:06;8.65;;;2.30;;
53108;SDS011;39007;53.090;6.074;2023-08-17T14:28:33;9.13;;;2.60;;
53108;SDS011;39007;53.090;6.074;2023-08-17T14:30:59;9.35;;;2.80;;
53108;SDS011;39007;53.090;6.074;2023-08-17T14:33:25;8.50;;;2.60;;
53108;SDS011;39007;53.090;6.074;2023-08-17T14:35:51;6.88;;;2.38;;
53108;SDS011;39007;53.090;6.074;2023-08-17T14:38:17;12.98;;;2.47;;
53108;SDS011;39007;53.090;6.074;2023-08-17T14:40:43;7.10;;;2.58;;
53108;SDS011;39007;53.090;6.074;2023-08-17T14:43:10;8.70;;;2.67;;
53108;SDS011;39007;53.090;6.074;2023-08-17T14:45:42;8.55;;;2.55;;
53108;SDS011;39007;53.090;6.074;2023-08-17T14:48:09;9.68;;;2.47;;